Etusivu
METAR-TAF:

METAR-TAF

Lentoasemat :

Whiting_Field_Naval_Air_Station_South_Airport

Milton, Florida, Yhdysvallat

Leveyspiiri: 30-41-50N, Pituuspiiri: 087-01-12W, korkeus merenpinnasta: 54 m

Tämänhetkinen sää

Tämä raportti tehtiin 4 minuuttia sitten, kello 17.56 UTC
Tuuli 7 kn idästä
Lämpötila 9°C
Kosteus 46%
Ilmanpaine 1024 hPa
Näkyvyys: 16.1 km
Muutamia pilviä 2500 ft:n korkeudessa
Hajanaisia pilviä 25000 ft:n korkeudessa

METAR: KNDZ 131756Z 10007KT 10SM FEW025 SCT250 09/M02 A3025 RMK AO2 SLP234 T00941017 10094 21039 58021 $

Aika: 12:00 (18:00 UTC)


TAF: puuttuu

Säähavainnot ja -ennusteet yli 4000 lentoasemalta (METAR- ja TAF-raportit).

Käytössä olevat sääasemat on merkitty karttaan keltaisilla ja punaisilla pisteillä.

Aseta hiiri pisteen päälle nähdäksesi sääaseman nimen.

Klikkaa sitten nähdäksesi säähavainnot ja -ennusteet.

Kartan vaihtaminen: klikkaa mustalla rastilla varustettuja vihreitä pisteitä, niin voit zoomata sisään; viivalla varustettua vihreää pistettä, niin voit zoomata ulos tai vihreitä nuolia, niin pääset viereisille kartoille.


METAR-TAF: